sensor_id;sensor_type;location;lat;lon;timestamp;pressure;altitude;pressure_sealevel;temperature
76394;BMP180;65216;51.090;-115.352;2024-01-11T00:00:25;85706.40;;;21.50
76394;BMP180;65216;51.090;-115.352;2024-01-11T00:02:55;85708.40;;;21.50
76394;BMP180;65216;51.090;-115.352;2024-01-11T00:05:22;85706.80;;;21.50
76394;BMP180;65216;51.090;-115.352;2024-01-11T00:07:49;85706.60;;;21.44
76394;BMP180;65216;51.090;-115.352;2024-01-11T00:10:19;85718.00;;;21.48
76394;BMP180;65216;51.090;-115.352;2024-01-11T00:12:47;85725.80;;;21.46
76394;BMP180;65216;51.090;-115.352;2024-01-11T00:15:14;85727.00;;;21.40
76394;BMP180;65216;51.090;-115.352;2024-01-11T00:17:41;85740.60;;;21.40
76394;BMP180;65216;51.090;-115.352;2024-01-11T00:20:09;85732.80;;;21.44
76394;BMP180;65216;51.090;-115.352;2024-01-11T00:22:37;85735.60;;;21.42
76394;BMP180;65216;51.090;-115.352;2024-01-11T00:25:04;85751.40;;;21.40
76394;BMP180;65216;51.090;-115.352;2024-01-11T00:27:31;85744.40;;;21.44
76394;BMP180;65216;51.090;-115.352;2024-01-11T00:29:58;85748.60;;;21.40
76394;BMP180;65216;51.090;-115.352;2024-01-11T00:32:26;85745.40;;;21.40
76394;BMP180;65216;51.090;-115.352;2024-01-11T00:34:53;85749.40;;;21.40
76394;BMP180;65216;51.090;-115.352;2024-01-11T00:37:20;85749.20;;;21.40
76394;BMP180;65216;51.090;-115.352;2024-01-11T00:39:48;85760.80;;;21.40
76394;BMP180;65216;51.090;-115.352;2024-01-11T00:42:14;85757.80;;;21.40
76394;BMP180;65216;51.090;-115.352;2024-01-11T00:44:41;85763.00;;;21.40
76394;BMP180;65216;51.090;-115.352;2024-01-11T00:47:08;85768.40;;;21.40
76394;BMP180;65216;51.090;-115.352;2024-01-11T00:49:37;85768.40;;;21.40
76394;BMP180;65216;51.090;-115.352;2024-01-11T00:52:04;85775.40;;;21.40
76394;BMP180;65216;51.090;-115.352;2024-01-11T00:54:31;85769.80;;;21.40
76394;BMP180;65216;51.090;-115.352;2024-01-11T00:56:58;85782.00;;;21.40
76394;BMP180;65216;51.090;-115.352;2024-01-11T00:59:25;85771.20;;;21.40
76394;BMP180;65216;51.090;-115.352;2024-01-11T01:01:52;85779.60;;;21.40
76394;BMP180;65216;51.090;-115.352;2024-01-11T01:04:21;85776.20;;;21.40
76394;BMP180;65216;51.090;-115.352;2024-01-11T01:06:47;85775.60;;;21.32
76394;BMP180;65216;51.090;-115.352;2024-01-11T01:09:14;85772.80;;;21.30
76394;BMP180;65216;51.090;-115.352;2024-01-11T01:11:41;85778.60;;;21.32
76394;BMP180;65216;51.090;-115.352;2024-01-11T01:14:08;85783.20;;;21.40
76394;BMP180;65216;51.090;-115.352;2024-01-11T01:16:35;85785.80;;;21.30
76394;BMP180;65216;51.090;-115.352;2024-01-11T01:19:04;85807.60;;;21.30
76394;BMP180;65216;51.090;-115.352;2024-01-11T01:21:30;85815.40;;;21.30
76394;BMP180;65216;51.090;-115.352;2024-01-11T01:23:57;85813.80;;;21.30
76394;BMP180;65216;51.090;-115.352;2024-01-11T01:26:25;85819.60;;;21.30
76394;BMP180;65216;51.090;-115.352;2024-01-11T01:28:51;85814.80;;;21.30
76394;BMP180;65216;51.090;-115.352;2024-01-11T01:31:19;85835.40;;;21.30
76394;BMP180;65216;51.090;-115.352;2024-01-11T01:33:46;85834.00;;;21.30
76394;BMP180;65216;51.090;-115.352;2024-01-11T01:36:13;85826.80;;;21.30
76394;BMP180;65216;51.090;-115.352;2024-01-11T01:38:40;85840.20;;;21.30
76394;BMP180;65216;51.090;-115.352;2024-01-11T01:41:07;85828.60;;;21.30
76394;BMP180;65216;51.090;-115.352;2024-01-11T01:43:34;85839.00;;;21.30
76394;BMP180;65216;51.090;-115.352;2024-01-11T01:46:02;85833.40;;;21.30
76394;BMP180;65216;51.090;-115.352;2024-01-11T01:48:30;85835.20;;;21.30
76394;BMP180;65216;51.090;-115.352;2024-01-11T01:50:57;85839.80;;;21.30
76394;BMP180;65216;51.090;-115.352;2024-01-11T01:53:26;85833.20;;;21.20
76394;BMP180;65216;51.090;-115.352;2024-01-11T01:55:55;85835.00;;;21.28
76394;BMP180;65216;51.090;-115.352;2024-01-11T01:58:25;85834.80;;;21.20
76394;BMP180;65216;51.090;-115.352;2024-01-11T02:00:52;85839.00;;;21.24
76394;BMP180;65216;51.090;-115.352;2024-01-11T02:03:20;85836.20;;;21.26
76394;BMP180;65216;51.090;-115.352;2024-01-11T02:05:47;85852.40;;;21.20
76394;BMP180;65216;51.090;-115.352;2024-01-11T02:08:16;85846.80;;;21.20
76394;BMP180;65216;51.090;-115.352;2024-01-11T02:10:46;85858.20;;;21.20
76394;BMP180;65216;51.090;-115.352;2024-01-11T02:13:14;85872.80;;;21.20
76394;BMP180;65216;51.090;-115.352;2024-01-11T02:15:40;85888.80;;;21.20
76394;BMP180;65216;51.090;-115.352;2024-01-11T02:18:10;85877.00;;;21.20
76394;BMP180;65216;51.090;-115.352;2024-01-11T02:20:37;85879.20;;;21.20
76394;BMP180;65216;51.090;-115.352;2024-01-11T02:23:15;85881.40;;;21.20
76394;BMP180;65216;51.090;-115.352;2024-01-11T02:25:44;85873.00;;;21.20
76394;BMP180;65216;51.090;-115.352;2024-01-11T02:28:10;85878.80;;;21.20
76394;BMP180;65216;51.090;-115.352;2024-01-11T02:30:38;85887.40;;;21.10
76394;BMP180;65216;51.090;-115.352;2024-01-11T02:33:05;85873.00;;;21.10
76394;BMP180;65216;51.090;-115.352;2024-01-11T02:35:33;85879.20;;;21.10
76394;BMP180;65216;51.090;-115.352;2024-01-11T02:38:02;85883.80;;;21.10
76394;BMP180;65216;51.090;-115.352;2024-01-11T02:40:30;85888.60;;;21.10
76394;BMP180;65216;51.090;-115.352;2024-01-11T02:42:57;85884.20;;;21.10
76394;BMP180;65216;51.090;-115.352;2024-01-11T02:45:24;85880.20;;;21.10
76394;BMP180;65216;51.090;-115.352;2024-01-11T02:47:51;85873.20;;;21.10
76394;BMP180;65216;51.090;-115.352;2024-01-11T02:50:18;85872.00;;;21.10
76394;BMP180;65216;51.090;-115.352;2024-01-11T02:52:45;85893.60;;;21.10
76394;BMP180;65216;51.090;-115.352;2024-01-11T02:55:12;85885.80;;;21.10
76394;BMP180;65216;51.090;-115.352;2024-01-11T02:57:39;85884.20;;;21.10
76394;BMP180;65216;51.090;-115.352;2024-01-11T03:00:07;85890.80;;;21.10
76394;BMP180;65216;51.090;-115.352;2024-01-11T03:02:34;85901.80;;;21.10
76394;BMP180;65216;51.090;-115.352;2024-01-11T03:05:00;85899.00;;;21.10
76394;BMP180;65216;51.090;-115.352;2024-01-11T03:07:30;85906.00;;;21.08
76394;BMP180;65216;51.090;-115.352;2024-01-11T03:09:57;85915.60;;;21.00
76394;BMP180;65216;51.090;-115.352;2024-01-11T03:12:23;85913.80;;;21.00
76394;BMP180;65216;51.090;-115.352;2024-01-11T03:14:52;85919.00;;;21.00
76394;BMP180;65216;51.090;-115.352;2024-01-11T03:17:19;85905.80;;;21.00
76394;BMP180;65216;51.090;-115.352;2024-01-11T03:19:49;85914.40;;;21.00
76394;BMP180;65216;51.090;-115.352;2024-01-11T03:22:15;85914.40;;;21.00
76394;BMP180;65216;51.090;-115.352;2024-01-11T03:24:43;85918.80;;;21.00
76394;BMP180;65216;51.090;-115.352;2024-01-11T03:27:10;85926.40;;;21.00
76394;BMP180;65216;51.090;-115.352;2024-01-11T03:29:36;85924.80;;;21.00
76394;BMP180;65216;51.090;-115.352;2024-01-11T03:32:04;85937.20;;;21.00
76394;BMP180;65216;51.090;-115.352;2024-01-11T03:34:30;85932.00;;;21.00
76394;BMP180;65216;51.090;-115.352;2024-01-11T03:36:57;85933.40;;;21.00
76394;BMP180;65216;51.090;-115.352;2024-01-11T03:39:25;85936.80;;;21.00
76394;BMP180;65216;51.090;-115.352;2024-01-11T03:41:55;85934.20;;;21.00
76394;BMP180;65216;51.090;-115.352;2024-01-11T03:44:23;85933.00;;;20.96
76394;BMP180;65216;51.090;-115.352;2024-01-11T03:46:49;85931.40;;;20.94
76394;BMP180;65216;51.090;-115.352;2024-01-11T03:49:17;85934.40;;;21.00
76394;BMP180;65216;51.090;-115.352;2024-01-11T03:51:46;85927.60;;;20.92
76394;BMP180;65216;51.090;-115.352;2024-01-11T03:54:13;85925.80;;;20.90
76394;BMP180;65216;51.090;-115.352;2024-01-11T03:56:40;85925.40;;;20.90
76394;BMP180;65216;51.090;-115.352;2024-01-11T03:59:07;85928.80;;;20.90
76394;BMP180;65216;51.090;-115.352;2024-01-11T04:01:39;85932.60;;;20.90
76394;BMP180;65216;51.090;-115.352;2024-01-11T04:04:07;85927.00;;;20.90
76394;BMP180;65216;51.090;-115.352;2024-01-11T04:06:37;85926.00;;;20.90
76394;BMP180;65216;51.090;-115.352;2024-01-11T04:09:03;85929.00;;;20.90
76394;BMP180;65216;51.090;-115.352;2024-01-11T04:11:30;85935.80;;;20.90
76394;BMP180;65216;51.090;-115.352;2024-01-11T04:13:57;85933.20;;;20.90
76394;BMP180;65216;51.090;-115.352;2024-01-11T04:16:24;85936.20;;;20.90
76394;BMP180;65216;51.090;-115.352;2024-01-11T04:18:51;85938.00;;;20.90
76394;BMP180;65216;51.090;-115.352;2024-01-11T04:21:25;85930.00;;;20.80
76394;BMP180;65216;51.090;-115.352;2024-01-11T04:23:56;85945.40;;;20.88
76394;BMP180;65216;51.090;-115.352;2024-01-11T04:26:23;85942.20;;;20.86
76394;BMP180;65216;51.090;-115.352;2024-01-11T04:28:52;85947.00;;;20.80
76394;BMP180;65216;51.090;-115.352;2024-01-11T04:31:19;85943.20;;;20.80
76394;BMP180;65216;51.090;-115.352;2024-01-11T04:33:47;85942.60;;;20.80
76394;BMP180;65216;51.090;-115.352;2024-01-11T04:36:14;85942.00;;;20.80
76394;BMP180;65216;51.090;-115.352;2024-01-11T04:38:41;85946.80;;;20.80
76394;BMP180;65216;51.090;-115.352;2024-01-11T04:41:11;85944.20;;;20.80
76394;BMP180;65216;51.090;-115.352;2024-01-11T04:43:40;85941.20;;;20.80
76394;BMP180;65216;51.090;-115.352;2024-01-11T04:46:21;85944.60;;;20.78
76394;BMP180;65216;51.090;-115.352;2024-01-11T04:48:49;85947.20;;;20.80
76394;BMP180;65216;51.090;-115.352;2024-01-11T04:51:19;85952.20;;;20.74
76394;BMP180;65216;51.090;-115.352;2024-01-11T04:53:46;85959.60;;;20.76
76394;BMP180;65216;51.090;-115.352;2024-01-11T04:56:17;85958.40;;;20.80
76394;BMP180;65216;51.090;-115.352;2024-01-11T04:58:45;85957.00;;;20.80
76394;BMP180;65216;51.090;-115.352;2024-01-11T05:01:14;85959.00;;;20.70
76394;BMP180;65216;51.090;-115.352;2024-01-11T05:03:43;85950.60;;;20.70
76394;BMP180;65216;51.090;-115.352;2024-01-11T05:06:18;85960.00;;;20.70
76394;BMP180;65216;51.090;-115.352;2024-01-11T05:08:51;85965.00;;;20.70
76394;BMP180;65216;51.090;-115.352;2024-01-11T05:11:26;85955.60;;;20.70
76394;BMP180;65216;51.090;-115.352;2024-01-11T05:13:53;85964.40;;;20.62
76394;BMP180;65216;51.090;-115.352;2024-01-11T05:16:25;85962.40;;;20.60
76394;BMP180;65216;51.090;-115.352;2024-01-11T05:18:57;85957.60;;;20.64
76394;BMP180;65216;51.090;-115.352;2024-01-11T05:21:24;85970.20;;;20.70
76394;BMP180;65216;51.090;-115.352;2024-01-11T05:23:54;85981.40;;;20.60
76394;BMP180;65216;51.090;-115.352;2024-01-11T05:26:22;85975.00;;;20.60
76394;BMP180;65216;51.090;-115.352;2024-01-11T05:28:50;85971.20;;;20.60
76394;BMP180;65216;51.090;-115.352;2024-01-11T05:31:17;85974.00;;;20.60
76394;BMP180;65216;51.090;-115.352;2024-01-11T05:33:45;85984.60;;;20.60
76394;BMP180;65216;51.090;-115.352;2024-01-11T05:36:13;85982.80;;;20.60
76394;BMP180;65216;51.090;-115.352;2024-01-11T05:38:41;85982.60;;;20.60
76394;BMP180;65216;51.090;-115.352;2024-01-11T05:41:08;85974.60;;;20.60
76394;BMP180;65216;51.090;-115.352;2024-01-11T05:43:35;85981.20;;;20.60
76394;BMP180;65216;51.090;-115.352;2024-01-11T05:46:02;85982.80;;;20.54
76394;BMP180;65216;51.090;-115.352;2024-01-11T05:48:28;85989.40;;;20.60
76394;BMP180;65216;51.090;-115.352;2024-01-11T05:50:56;85985.40;;;20.60
76394;BMP180;65216;51.090;-115.352;2024-01-11T05:53:23;85994.00;;;20.60
76394;BMP180;65216;51.090;-115.352;2024-01-11T05:55:51;85990.80;;;20.58
76394;BMP180;65216;51.090;-115.352;2024-01-11T05:58:18;85988.60;;;20.60
76394;BMP180;65216;51.090;-115.352;2024-01-11T06:00:47;85988.00;;;20.60
76394;BMP180;65216;51.090;-115.352;2024-01-11T06:03:15;85990.60;;;20.58
76394;BMP180;65216;51.090;-115.352;2024-01-11T06:05:42;85996.60;;;20.60
76394;BMP180;65216;51.090;-115.352;2024-01-11T06:08:09;86000.80;;;20.56
76394;BMP180;65216;51.090;-115.352;2024-01-11T06:10:35;86005.20;;;20.54
76394;BMP180;65216;51.090;-115.352;2024-01-11T06:13:05;86000.00;;;20.58
76394;BMP180;65216;51.090;-115.352;2024-01-11T06:15:32;86006.20;;;20.56
76394;BMP180;65216;51.090;-115.352;2024-01-11T06:18:00;86011.00;;;20.54
76394;BMP180;65216;51.090;-115.352;2024-01-11T06:20:30;86003.40;;;20.50
76394;BMP180;65216;51.090;-115.352;2024-01-11T06:22:57;86003.00;;;20.50
76394;BMP180;65216;51.090;-115.352;2024-01-11T06:25:24;86001.60;;;20.50
76394;BMP180;65216;51.090;-115.352;2024-01-11T06:27:51;86005.40;;;20.50
76394;BMP180;65216;51.090;-115.352;2024-01-11T06:30:17;86013.20;;;20.50
76394;BMP180;65216;51.090;-115.352;2024-01-11T06:32:45;86019.60;;;20.50
76394;BMP180;65216;51.090;-115.352;2024-01-11T06:35:12;86014.00;;;20.50
76394;BMP180;65216;51.090;-115.352;2024-01-11T06:37:39;86016.80;;;20.50
76394;BMP180;65216;51.090;-115.352;2024-01-11T06:40:09;86019.20;;;20.50
76394;BMP180;65216;51.090;-115.352;2024-01-11T06:42:36;86023.00;;;20.50
76394;BMP180;65216;51.090;-115.352;2024-01-11T06:45:03;86032.00;;;20.50
76394;BMP180;65216;51.090;-115.352;2024-01-11T06:47:30;86032.80;;;20.50
76394;BMP180;65216;51.090;-115.352;2024-01-11T06:49:56;86037.20;;;20.50
76394;BMP180;65216;51.090;-115.352;2024-01-11T06:52:23;86033.60;;;20.50
76394;BMP180;65216;51.090;-115.352;2024-01-11T06:54:51;86035.00;;;20.50
76394;BMP180;65216;51.090;-115.352;2024-01-11T06:57:18;86042.00;;;20.50
76394;BMP180;65216;51.090;-115.352;2024-01-11T06:59:45;86045.20;;;20.50
76394;BMP180;65216;51.090;-115.352;2024-01-11T07:02:12;86042.20;;;20.50
76394;BMP180;65216;51.090;-115.352;2024-01-11T07:04:44;86047.60;;;20.50
76394;BMP180;65216;51.090;-115.352;2024-01-11T07:07:11;86049.20;;;20.40
76394;BMP180;65216;51.090;-115.352;2024-01-11T07:09:39;86046.00;;;20.40
76394;BMP180;65216;51.090;-115.352;2024-01-11T07:12:06;86052.00;;;20.42
76394;BMP180;65216;51.090;-115.352;2024-01-11T07:14:34;86050.80;;;20.40
76394;BMP180;65216;51.090;-115.352;2024-01-11T07:17:01;86050.60;;;20.40
76394;BMP180;65216;51.090;-115.352;2024-01-11T07:19:30;86045.40;;;20.40
76394;BMP180;65216;51.090;-115.352;2024-01-11T07:21:57;86043.20;;;20.40
76394;BMP180;65216;51.090;-115.352;2024-01-11T07:24:23;86045.80;;;20.40
76394;BMP180;65216;51.090;-115.352;2024-01-11T07:26:51;86049.20;;;20.40
76394;BMP180;65216;51.090;-115.352;2024-01-11T07:29:18;86050.80;;;20.40
76394;BMP180;65216;51.090;-115.352;2024-01-11T07:31:45;86054.40;;;20.40
76394;BMP180;65216;51.090;-115.352;2024-01-11T07:34:12;86063.80;;;20.40
76394;BMP180;65216;51.090;-115.352;2024-01-11T07:36:39;86059.40;;;20.40
76394;BMP180;65216;51.090;-115.352;2024-01-11T07:39:05;86065.60;;;20.32
76394;BMP180;65216;51.090;-115.352;2024-01-11T07:41:32;86070.20;;;20.30
76394;BMP180;65216;51.090;-115.352;2024-01-11T07:43:59;86069.80;;;20.40
76394;BMP180;65216;51.090;-115.352;2024-01-11T07:46:26;86073.20;;;20.32
76394;BMP180;65216;51.090;-115.352;2024-01-11T07:48:53;86068.80;;;20.30
76394;BMP180;65216;51.090;-115.352;2024-01-11T07:51:20;86077.80;;;20.30
76394;BMP180;65216;51.090;-115.352;2024-01-11T07:53:47;86074.40;;;20.32
76394;BMP180;65216;51.090;-115.352;2024-01-11T07:56:15;86074.40;;;20.30
76394;BMP180;65216;51.090;-115.352;2024-01-11T07:58:44;86083.60;;;20.34
76394;BMP180;65216;51.090;-115.352;2024-01-11T08:01:11;86081.40;;;20.30
76394;BMP180;65216;51.090;-115.352;2024-01-11T08:03:39;86087.80;;;20.30
76394;BMP180;65216;51.090;-115.352;2024-01-11T08:06:08;86082.00;;;20.30
76394;BMP180;65216;51.090;-115.352;2024-01-11T08:08:35;86086.60;;;20.30
76394;BMP180;65216;51.090;-115.352;2024-01-11T08:11:04;86085.80;;;20.30
76394;BMP180;65216;51.090;-115.352;2024-01-11T08:13:31;86092.20;;;20.30
76394;BMP180;65216;51.090;-115.352;2024-01-11T08:15:58;86083.80;;;20.30
76394;BMP180;65216;51.090;-115.352;2024-01-11T08:18:25;86080.20;;;20.30
76394;BMP180;65216;51.090;-115.352;2024-01-11T08:20:53;86084.00;;;20.28
76394;BMP180;65216;51.090;-115.352;2024-01-11T08:23:20;86090.60;;;20.20
76394;BMP180;65216;51.090;-115.352;2024-01-11T08:25:47;86095.60;;;20.20
76394;BMP180;65216;51.090;-115.352;2024-01-11T08:28:16;86091.80;;;20.20
76394;BMP180;65216;51.090;-115.352;2024-01-11T08:30:43;86097.80;;;20.20
76394;BMP180;65216;51.090;-115.352;2024-01-11T08:33:13;86094.20;;;20.20
76394;BMP180;65216;51.090;-115.352;2024-01-11T08:35:40;86094.80;;;20.20
76394;BMP180;65216;51.090;-115.352;2024-01-11T08:38:07;86098.00;;;20.20
76394;BMP180;65216;51.090;-115.352;2024-01-11T08:40:34;86095.00;;;20.20
76394;BMP180;65216;51.090;-115.352;2024-01-11T08:43:02;86095.60;;;20.20
76394;BMP180;65216;51.090;-115.352;2024-01-11T08:45:29;86097.40;;;20.20
76394;BMP180;65216;51.090;-115.352;2024-01-11T08:47:57;86099.40;;;20.20
76394;BMP180;65216;51.090;-115.352;2024-01-11T08:50:24;86096.60;;;20.20
76394;BMP180;65216;51.090;-115.352;2024-01-11T08:52:50;86102.00;;;20.14
76394;BMP180;65216;51.090;-115.352;2024-01-11T08:55:17;86100.00;;;20.10
76394;BMP180;65216;51.090;-115.352;2024-01-11T08:57:44;86105.60;;;20.10
76394;BMP180;65216;51.090;-115.352;2024-01-11T09:00:11;86113.40;;;20.10
76394;BMP180;65216;51.090;-115.352;2024-01-11T09:02:46;86116.20;;;20.10
76394;BMP180;65216;51.090;-115.352;2024-01-11T09:05:17;86120.00;;;20.08
76394;BMP180;65216;51.090;-115.352;2024-01-11T09:07:44;86119.60;;;20.06
76394;BMP180;65216;51.090;-115.352;2024-01-11T09:10:11;86119.80;;;20.00
76394;BMP180;65216;51.090;-115.352;2024-01-11T09:12:39;86120.60;;;20.00
76394;BMP180;65216;51.090;-115.352;2024-01-11T09:15:06;86118.60;;;20.00
76394;BMP180;65216;51.090;-115.352;2024-01-11T09:17:33;86116.20;;;20.00
76394;BMP180;65216;51.090;-115.352;2024-01-11T09:20:03;86111.40;;;20.00
76394;BMP180;65216;51.090;-115.352;2024-01-11T09:22:31;86119.80;;;20.00
76394;BMP180;65216;51.090;-115.352;2024-01-11T09:24:58;86124.60;;;20.00
76394;BMP180;65216;51.090;-115.352;2024-01-11T09:27:25;86125.40;;;19.96
76394;BMP180;65216;51.090;-115.352;2024-01-11T09:29:52;86124.60;;;19.96
76394;BMP180;65216;51.090;-115.352;2024-01-11T09:32:23;86127.60;;;19.90
76394;BMP180;65216;51.090;-115.352;2024-01-11T09:34:51;86128.20;;;19.90
76394;BMP180;65216;51.090;-115.352;2024-01-11T09:37:18;86124.20;;;19.90
76394;BMP180;65216;51.090;-115.352;2024-01-11T09:39:46;86124.20;;;19.90
76394;BMP180;65216;51.090;-115.352;2024-01-11T09:42:13;86125.80;;;19.90
76394;BMP180;65216;51.090;-115.352;2024-01-11T09:44:41;86124.20;;;19.90
76394;BMP180;65216;51.090;-115.352;2024-01-11T09:47:11;86130.20;;;19.90
76394;BMP180;65216;51.090;-115.352;2024-01-11T09:49:41;86124.00;;;19.90
76394;BMP180;65216;51.090;-115.352;2024-01-11T09:52:11;86130.40;;;19.82
76394;BMP180;65216;51.090;-115.352;2024-01-11T09:54:39;86136.60;;;19.80
76394;BMP180;65216;51.090;-115.352;2024-01-11T09:57:10;86134.00;;;19.80
76394;BMP180;65216;51.090;-115.352;2024-01-11T09:59:37;86137.00;;;19.80
76394;BMP180;65216;51.090;-115.352;2024-01-11T10:02:04;86133.20;;;19.80
76394;BMP180;65216;51.090;-115.352;2024-01-11T10:04:34;86127.00;;;19.80
76394;BMP180;65216;51.090;-115.352;2024-01-11T10:07:04;86129.80;;;19.80
76394;BMP180;65216;51.090;-115.352;2024-01-11T10:09:35;86135.60;;;19.80
76394;BMP180;65216;51.090;-115.352;2024-01-11T10:12:03;86137.80;;;19.80
76394;BMP180;65216;51.090;-115.352;2024-01-11T10:14:31;86141.60;;;19.80
76394;BMP180;65216;51.090;-115.352;2024-01-11T10:16:58;86143.20;;;19.80
76394;BMP180;65216;51.090;-115.352;2024-01-11T10:19:25;86139.00;;;19.70
76394;BMP180;65216;51.090;-115.352;2024-01-11T10:21:52;86132.80;;;19.70
76394;BMP180;65216;51.090;-115.352;2024-01-11T10:24:20;86137.40;;;19.70
76394;BMP180;65216;51.090;-115.352;2024-01-11T10:26:48;86142.80;;;19.70
76394;BMP180;65216;51.090;-115.352;2024-01-11T10:29:15;86145.60;;;19.70
76394;BMP180;65216;51.090;-115.352;2024-01-11T10:31:45;86151.00;;;19.70
76394;BMP180;65216;51.090;-115.352;2024-01-11T10:34:12;86149.40;;;19.70
76394;BMP180;65216;51.090;-115.352;2024-01-11T10:36:40;86151.60;;;19.70
76394;BMP180;65216;51.090;-115.352;2024-01-11T10:39:09;86149.80;;;19.70
76394;BMP180;65216;51.090;-115.352;2024-01-11T10:41:47;86143.20;;;19.70
76394;BMP180;65216;51.090;-115.352;2024-01-11T10:44:21;86147.20;;;19.70
76394;BMP180;65216;51.090;-115.352;2024-01-11T10:46:52;86151.20;;;19.70
76394;BMP180;65216;51.090;-115.352;2024-01-11T10:49:25;86152.20;;;19.70
76394;BMP180;65216;51.090;-115.352;2024-01-11T10:52:02;86158.00;;;19.68
76394;BMP180;65216;51.090;-115.352;2024-01-11T10:54:34;86154.40;;;19.62
76394;BMP180;65216;51.090;-115.352;2024-01-11T10:57:01;86153.80;;;19.60
76394;BMP180;65216;51.090;-115.352;2024-01-11T10:59:33;86154.80;;;19.60
76394;BMP180;65216;51.090;-115.352;2024-01-11T11:02:05;86153.20;;;19.60
76394;BMP180;65216;51.090;-115.352;2024-01-11T11:04:43;86156.00;;;19.60
76394;BMP180;65216;51.090;-115.352;2024-01-11T11:07:11;86154.60;;;19.60
76394;BMP180;65216;51.090;-115.352;2024-01-11T11:09:40;86153.20;;;19.60
76394;BMP180;65216;51.090;-115.352;2024-01-11T11:12:12;86163.00;;;19.50
76394;BMP180;65216;51.090;-115.352;2024-01-11T11:14:42;86170.80;;;19.50
76394;BMP180;65216;51.090;-115.352;2024-01-11T11:17:10;86174.40;;;19.50
76394;BMP180;65216;51.090;-115.352;2024-01-11T11:19:38;86171.80;;;19.50
76394;BMP180;65216;51.090;-115.352;2024-01-11T11:22:05;86178.20;;;19.50
76394;BMP180;65216;51.090;-115.352;2024-01-11T11:24:35;86170.60;;;19.50
76394;BMP180;65216;51.090;-115.352;2024-01-11T11:27:02;86174.20;;;19.50
76394;BMP180;65216;51.090;-115.352;2024-01-11T11:29:29;86176.80;;;19.52
76394;BMP180;65216;51.090;-115.352;2024-01-11T11:31:56;86172.40;;;19.50
76394;BMP180;65216;51.090;-115.352;2024-01-11T11:34:43;86173.40;;;19.50
76394;BMP180;65216;51.090;-115.352;2024-01-11T11:37:22;86180.40;;;19.50
76394;BMP180;65216;51.090;-115.352;2024-01-11T11:39:50;86174.20;;;19.50
76394;BMP180;65216;51.090;-115.352;2024-01-11T11:42:17;86173.80;;;19.50
76394;BMP180;65216;51.090;-115.352;2024-01-11T11:44:50;86181.80;;;19.50
76394;BMP180;65216;51.090;-115.352;2024-01-11T11:47:23;86189.60;;;19.50
76394;BMP180;65216;51.090;-115.352;2024-01-11T11:50:09;86185.20;;;19.42
76394;BMP180;65216;51.090;-115.352;2024-01-11T11:52:40;86187.80;;;19.40
76394;BMP180;65216;51.090;-115.352;2024-01-11T11:55:12;86183.00;;;19.42
76394;BMP180;65216;51.090;-115.352;2024-01-11T11:57:43;86190.60;;;19.50
76394;BMP180;65216;51.090;-115.352;2024-01-11T12:00:11;86193.20;;;19.44
76394;BMP180;65216;51.090;-115.352;2024-01-11T12:02:39;86199.40;;;19.40
76394;BMP180;65216;51.090;-115.352;2024-01-11T12:05:07;86208.20;;;19.40
76394;BMP180;65216;51.090;-115.352;2024-01-11T12:07:34;86217.00;;;19.40
76394;BMP180;65216;51.090;-115.352;2024-01-11T12:10:01;86216.60;;;19.40
76394;BMP180;65216;51.090;-115.352;2024-01-11T12:12:29;86213.20;;;19.40
76394;BMP180;65216;51.090;-115.352;2024-01-11T12:14:57;86218.00;;;19.42
76394;BMP180;65216;51.090;-115.352;2024-01-11T12:17:25;86218.60;;;19.40
76394;BMP180;65216;51.090;-115.352;2024-01-11T12:19:52;86216.00;;;19.40
76394;BMP180;65216;51.090;-115.352;2024-01-11T12:22:19;86222.00;;;19.42
76394;BMP180;65216;51.090;-115.352;2024-01-11T12:24:47;86219.80;;;19.42
76394;BMP180;65216;51.090;-115.352;2024-01-11T12:27:14;86227.40;;;19.42
76394;BMP180;65216;51.090;-115.352;2024-01-11T12:29:43;86234.60;;;19.42
76394;BMP180;65216;51.090;-115.352;2024-01-11T12:32:10;86236.20;;;19.40
76394;BMP180;65216;51.090;-115.352;2024-01-11T12:34:43;86244.40;;;19.40
76394;BMP180;65216;51.090;-115.352;2024-01-11T12:37:10;86240.20;;;19.40
76394;BMP180;65216;51.090;-115.352;2024-01-11T12:39:40;86247.40;;;19.40
76394;BMP180;65216;51.090;-115.352;2024-01-11T12:42:07;86249.20;;;19.40
76394;BMP180;65216;51.090;-115.352;2024-01-11T12:44:35;86254.40;;;19.40
76394;BMP180;65216;51.090;-115.352;2024-01-11T12:47:04;86254.00;;;19.40
76394;BMP180;65216;51.090;-115.352;2024-01-11T12:49:32;86250.80;;;19.40
76394;BMP180;65216;51.090;-115.352;2024-01-11T12:51:59;86253.00;;;19.40
76394;BMP180;65216;51.090;-115.352;2024-01-11T12:54:26;86253.20;;;19.42
76394;BMP180;65216;51.090;-115.352;2024-01-11T12:56:54;86249.60;;;19.40
76394;BMP180;65216;51.090;-115.352;2024-01-11T12:59:26;86253.60;;;19.40
76394;BMP180;65216;51.090;-115.352;2024-01-11T13:01:53;86264.80;;;19.48
76394;BMP180;65216;51.090;-115.352;2024-01-11T13:04:19;86265.60;;;19.50
76394;BMP180;65216;51.090;-115.352;2024-01-11T13:06:47;86272.60;;;19.46
76394;BMP180;65216;51.090;-115.352;2024-01-11T13:09:14;86271.00;;;19.40
76394;BMP180;65216;51.090;-115.352;2024-01-11T13:11:42;86276.40;;;19.40
76394;BMP180;65216;51.090;-115.352;2024-01-11T13:14:09;86277.00;;;19.40
76394;BMP180;65216;51.090;-115.352;2024-01-11T13:16:41;86277.60;;;19.44
76394;BMP180;65216;51.090;-115.352;2024-01-11T13:19:07;86281.40;;;19.42
76394;BMP180;65216;51.090;-115.352;2024-01-11T13:21:34;86284.60;;;19.40
76394;BMP180;65216;51.090;-115.352;2024-01-11T13:24:01;86289.20;;;19.40
76394;BMP180;65216;51.090;-115.352;2024-01-11T13:26:28;86287.80;;;19.40
76394;BMP180;65216;51.090;-115.352;2024-01-11T13:28:55;86295.40;;;19.40
76394;BMP180;65216;51.090;-115.352;2024-01-11T13:31:22;86296.80;;;19.42
76394;BMP180;65216;51.090;-115.352;2024-01-11T13:33:49;86298.60;;;19.50
76394;BMP180;65216;51.090;-115.352;2024-01-11T13:36:18;86296.00;;;19.50